sensor_id;sensor_type;location;lat;lon;timestamp;P1;durP1;ratioP1;P2;durP2;ratioP2
21741;SDS011;11033;47.490;11.116;2022-12-31T00:00:00;1.05;;;0.95;;
21741;SDS011;11033;47.490;11.116;2022-12-31T00:02:25;2.67;;;1.02;;
21741;SDS011;11033;47.490;11.116;2022-12-31T00:04:50;1.10;;;1.00;;
21741;SDS011;11033;47.490;11.116;2022-12-31T00:07:16;1.20;;;1.10;;
21741;SDS011;11033;47.490;11.116;2022-12-31T00:09:41;4.22;;;1.67;;
21741;SDS011;11033;47.490;11.116;2022-12-31T00:12:06;1.88;;;1.13;;
21741;SDS011;11033;47.490;11.116;2022-12-31T00:14:32;1.20;;;1.10;;
21741;SDS011;11033;47.490;11.116;2022-12-31T00:16:57;1.10;;;0.97;;
21741;SDS011;11033;47.490;11.116;2022-12-31T00:19:22;1.00;;;0.88;;
21741;SDS011;11033;47.490;11.116;2022-12-31T00:21:48;1.87;;;1.00;;
21741;SDS011;11033;47.490;11.116;2022-12-31T00:24:13;1.70;;;1.08;;
21741;SDS011;11033;47.490;11.116;2022-12-31T00:26:38;1.10;;;1.10;;
21741;SDS011;11033;47.490;11.116;2022-12-31T00:29:04;1.80;;;1.50;;
21741;SDS011;11033;47.490;11.116;2022-12-31T00:31:33;1.30;;;1.08;;
21741;SDS011;11033;47.490;11.116;2022-12-31T00:36:26;1.87;;;1.20;;
21741;SDS011;11033;47.490;11.116;2022-12-31T00:38:54;1.00;;;0.93;;
21741;SDS011;11033;47.490;11.116;2022-12-31T00:41:21;1.20;;;0.90;;
21741;SDS011;11033;47.490;11.116;2022-12-31T00:43:47;1.50;;;0.80;;
21741;SDS011;11033;47.490;11.116;2022-12-31T00:46:13;1.50;;;1.20;;
21741;SDS011;11033;47.490;11.116;2022-12-31T00:48:40;1.52;;;0.93;;
21741;SDS011;11033;47.490;11.116;2022-12-31T00:51:07;1.88;;;1.17;;
21741;SDS011;11033;47.490;11.116;2022-12-31T00:53:34;2.25;;;1.10;;
21741;SDS011;11033;47.490;11.116;2022-12-31T00:56:00;1.23;;;1.00;;
21741;SDS011;11033;47.490;11.116;2022-12-31T00:58:25;1.13;;;1.02;;
21741;SDS011;11033;47.490;11.116;2022-12-31T01:00:51;2.78;;;1.08;;
21741;SDS011;11033;47.490;11.116;2022-12-31T01:03:16;1.17;;;1.00;;
21741;SDS011;11033;47.490;11.116;2022-12-31T01:05:41;0.88;;;0.88;;
21741;SDS011;11033;47.490;11.116;2022-12-31T01:08:07;1.35;;;1.15;;
21741;SDS011;11033;47.490;11.116;2022-12-31T01:10:32;1.15;;;0.95;;
21741;SDS011;11033;47.490;11.116;2022-12-31T01:13:16;0.98;;;0.90;;
21741;SDS011;11033;47.490;11.116;2022-12-31T01:15:41;1.02;;;0.90;;
21741;SDS011;11033;47.490;11.116;2022-12-31T01:18:07;0.95;;;0.90;;
21741;SDS011;11033;47.490;11.116;2022-12-31T01:20:41;1.38;;;1.23;;
21741;SDS011;11033;47.490;11.116;2022-12-31T01:23:08;1.30;;;1.15;;
21741;SDS011;11033;47.490;11.116;2022-12-31T01:25:35;2.35;;;0.95;;
21741;SDS011;11033;47.490;11.116;2022-12-31T01:28:02;1.50;;;0.88;;
21741;SDS011;11033;47.490;11.116;2022-12-31T01:30:28;1.55;;;1.00;;
21741;SDS011;11033;47.490;11.116;2022-12-31T01:32:53;0.90;;;0.73;;
21741;SDS011;11033;47.490;11.116;2022-12-31T01:35:19;1.33;;;0.98;;
21741;SDS011;11033;47.490;11.116;2022-12-31T01:37:44;2.85;;;0.95;;
21741;SDS011;11033;47.490;11.116;2022-12-31T01:40:10;1.20;;;1.10;;
21741;SDS011;11033;47.490;11.116;2022-12-31T01:42:36;0.85;;;0.85;;
21741;SDS011;11033;47.490;11.116;2022-12-31T01:45:01;2.30;;;1.20;;
21741;SDS011;11033;47.490;11.116;2022-12-31T01:47:30;2.75;;;1.02;;
21741;SDS011;11033;47.490;11.116;2022-12-31T01:50:04;1.08;;;0.88;;
21741;SDS011;11033;47.490;11.116;2022-12-31T01:52:36;1.65;;;1.05;;
21741;SDS011;11033;47.490;11.116;2022-12-31T01:55:07;3.92;;;1.00;;
21741;SDS011;11033;47.490;11.116;2022-12-31T01:57:38;0.65;;;0.55;;
21741;SDS011;11033;47.490;11.116;2022-12-31T02:00:05;0.85;;;0.70;;
21741;SDS011;11033;47.490;11.116;2022-12-31T02:02:31;0.80;;;0.80;;
21741;SDS011;11033;47.490;11.116;2022-12-31T02:04:57;1.50;;;1.40;;
21741;SDS011;11033;47.490;11.116;2022-12-31T02:07:27;1.58;;;1.05;;
21741;SDS011;11033;47.490;11.116;2022-12-31T02:09:52;1.73;;;0.90;;
21741;SDS011;11033;47.490;11.116;2022-12-31T02:12:18;1.05;;;0.95;;
21741;SDS011;11033;47.490;11.116;2022-12-31T02:14:45;1.10;;;1.00;;
21741;SDS011;11033;47.490;11.116;2022-12-31T02:28:02;1.15;;;1.05;;
21741;SDS011;11033;47.490;11.116;2022-12-31T02:30:36;0.73;;;0.73;;
21741;SDS011;11033;47.490;11.116;2022-12-31T02:33:09;1.27;;;1.17;;
21741;SDS011;11033;47.490;11.116;2022-12-31T02:38:20;1.27;;;0.90;;
21741;SDS011;11033;47.490;11.116;2022-12-31T02:40:49;0.75;;;0.75;;
21741;SDS011;11033;47.490;11.116;2022-12-31T02:43:17;0.70;;;0.70;;
21741;SDS011;11033;47.490;11.116;2022-12-31T02:45:47;1.00;;;0.85;;
21741;SDS011;11033;47.490;11.116;2022-12-31T02:48:27;1.02;;;0.93;;
21741;SDS011;11033;47.490;11.116;2022-12-31T02:59:11;2.17;;;0.95;;
21741;SDS011;11033;47.490;11.116;2022-12-31T03:02:07;1.52;;;0.95;;
21741;SDS011;11033;47.490;11.116;2022-12-31T03:04:43;1.40;;;1.00;;
21741;SDS011;11033;47.490;11.116;2022-12-31T03:07:12;1.60;;;1.08;;
21741;SDS011;11033;47.490;11.116;2022-12-31T03:09:41;1.70;;;1.10;;
21741;SDS011;11033;47.490;11.116;2022-12-31T03:12:08;1.30;;;1.10;;
21741;SDS011;11033;47.490;11.116;2022-12-31T03:14:53;0.93;;;0.70;;
21741;SDS011;11033;47.490;11.116;2022-12-31T03:17:19;3.22;;;0.93;;
21741;SDS011;11033;47.490;11.116;2022-12-31T03:19:44;0.82;;;0.75;;
21741;SDS011;11033;47.490;11.116;2022-12-31T03:22:30;1.00;;;0.80;;
21741;SDS011;11033;47.490;11.116;2022-12-31T03:27:43;2.40;;;0.70;;
21741;SDS011;11033;47.490;11.116;2022-12-31T03:30:10;1.77;;;1.20;;
21741;SDS011;11033;47.490;11.116;2022-12-31T03:32:37;1.15;;;1.05;;
21741;SDS011;11033;47.490;11.116;2022-12-31T03:35:03;1.60;;;0.85;;
21741;SDS011;11033;47.490;11.116;2022-12-31T03:37:29;1.02;;;1.02;;
21741;SDS011;11033;47.490;11.116;2022-12-31T03:39:54;0.70;;;0.70;;
21741;SDS011;11033;47.490;11.116;2022-12-31T03:42:19;1.47;;;1.13;;
21741;SDS011;11033;47.490;11.116;2022-12-31T03:44:45;1.88;;;1.15;;
21741;SDS011;11033;47.490;11.116;2022-12-31T03:47:10;1.88;;;0.88;;
21741;SDS011;11033;47.490;11.116;2022-12-31T03:49:35;0.90;;;0.90;;
21741;SDS011;11033;47.490;11.116;2022-12-31T03:52:01;1.55;;;0.80;;
21741;SDS011;11033;47.490;11.116;2022-12-31T03:54:27;1.80;;;0.77;;
21741;SDS011;11033;47.490;11.116;2022-12-31T03:56:52;1.02;;;0.80;;
21741;SDS011;11033;47.490;11.116;2022-12-31T03:59:18;1.30;;;1.00;;
21741;SDS011;11033;47.490;11.116;2022-12-31T04:01:43;1.10;;;1.00;;
21741;SDS011;11033;47.490;11.116;2022-12-31T04:04:08;1.10;;;0.73;;
21741;SDS011;11033;47.490;11.116;2022-12-31T04:06:33;0.80;;;0.80;;
21741;SDS011;11033;47.490;11.116;2022-12-31T04:08:59;1.40;;;0.70;;
21741;SDS011;11033;47.490;11.116;2022-12-31T04:11:24;0.77;;;0.77;;
21741;SDS011;11033;47.490;11.116;2022-12-31T04:13:49;0.90;;;0.67;;
21741;SDS011;11033;47.490;11.116;2022-12-31T04:16:15;1.43;;;0.67;;
21741;SDS011;11033;47.490;11.116;2022-12-31T04:18:40;2.80;;;0.75;;
21741;SDS011;11033;47.490;11.116;2022-12-31T04:21:05;0.80;;;0.80;;
21741;SDS011;11033;47.490;11.116;2022-12-31T04:23:31;0.95;;;0.73;;
21741;SDS011;11033;47.490;11.116;2022-12-31T04:25:56;0.70;;;0.70;;
21741;SDS011;11033;47.490;11.116;2022-12-31T04:28:21;0.60;;;0.60;;
21741;SDS011;11033;47.490;11.116;2022-12-31T04:30:47;1.13;;;1.00;;
21741;SDS011;11033;47.490;11.116;2022-12-31T04:33:12;2.05;;;0.93;;
21741;SDS011;11033;47.490;11.116;2022-12-31T04:35:37;1.23;;;0.70;;
21741;SDS011;11033;47.490;11.116;2022-12-31T04:38:02;0.80;;;0.73;;
21741;SDS011;11033;47.490;11.116;2022-12-31T04:40:28;0.82;;;0.70;;
21741;SDS011;11033;47.490;11.116;2022-12-31T04:42:53;1.13;;;0.70;;
21741;SDS011;11033;47.490;11.116;2022-12-31T04:45:18;1.20;;;0.80;;
21741;SDS011;11033;47.490;11.116;2022-12-31T04:47:44;0.60;;;0.60;;
21741;SDS011;11033;47.490;11.116;2022-12-31T04:50:09;0.70;;;0.70;;
21741;SDS011;11033;47.490;11.116;2022-12-31T04:52:34;1.27;;;0.90;;
21741;SDS011;11033;47.490;11.116;2022-12-31T04:55:00;1.88;;;1.08;;
21741;SDS011;11033;47.490;11.116;2022-12-31T04:57:25;2.03;;;0.82;;
21741;SDS011;11033;47.490;11.116;2022-12-31T04:59:51;0.80;;;0.80;;
21741;SDS011;11033;47.490;11.116;2022-12-31T05:02:16;1.10;;;0.98;;
21741;SDS011;11033;47.490;11.116;2022-12-31T05:04:41;2.42;;;1.10;;
21741;SDS011;11033;47.490;11.116;2022-12-31T05:07:07;0.80;;;0.80;;
21741;SDS011;11033;47.490;11.116;2022-12-31T05:09:32;1.00;;;0.95;;
21741;SDS011;11033;47.490;11.116;2022-12-31T05:11:57;1.53;;;1.17;;
21741;SDS011;11033;47.490;11.116;2022-12-31T05:14:23;0.90;;;0.90;;
21741;SDS011;11033;47.490;11.116;2022-12-31T05:16:48;1.90;;;0.60;;
21741;SDS011;11033;47.490;11.116;2022-12-31T05:19:14;1.27;;;0.70;;
21741;SDS011;11033;47.490;11.116;2022-12-31T05:21:39;1.38;;;0.70;;
21741;SDS011;11033;47.490;11.116;2022-12-31T05:24:05;1.10;;;0.60;;
21741;SDS011;11033;47.490;11.116;2022-12-31T05:26:30;2.10;;;0.73;;
21741;SDS011;11033;47.490;11.116;2022-12-31T05:28:56;0.60;;;0.60;;
21741;SDS011;11033;47.490;11.116;2022-12-31T05:31:24;0.68;;;0.63;;
21741;SDS011;11033;47.490;11.116;2022-12-31T05:33:49;0.80;;;0.80;;
21741;SDS011;11033;47.490;11.116;2022-12-31T05:36:15;0.65;;;0.65;;
21741;SDS011;11033;47.490;11.116;2022-12-31T05:38:40;1.08;;;0.80;;
21741;SDS011;11033;47.490;11.116;2022-12-31T05:41:06;0.60;;;0.60;;
21741;SDS011;11033;47.490;11.116;2022-12-31T05:43:32;2.58;;;0.90;;
21741;SDS011;11033;47.490;11.116;2022-12-31T05:46:01;0.93;;;0.75;;
21741;SDS011;11033;47.490;11.116;2022-12-31T05:48:27;1.17;;;1.00;;
21741;SDS011;11033;47.490;11.116;2022-12-31T05:50:53;1.05;;;0.88;;
21741;SDS011;11033;47.490;11.116;2022-12-31T05:53:18;2.03;;;1.00;;
21741;SDS011;11033;47.490;11.116;2022-12-31T05:55:44;2.15;;;1.00;;
21741;SDS011;11033;47.490;11.116;2022-12-31T05:58:11;1.35;;;0.73;;
21741;SDS011;11033;47.490;11.116;2022-12-31T06:00:37;0.77;;;0.60;;
21741;SDS011;11033;47.490;11.116;2022-12-31T06:03:03;2.65;;;0.90;;
21741;SDS011;11033;47.490;11.116;2022-12-31T06:05:29;0.80;;;0.80;;
21741;SDS011;11033;47.490;11.116;2022-12-31T06:07:54;0.77;;;0.77;;
21741;SDS011;11033;47.490;11.116;2022-12-31T06:10:19;1.85;;;0.63;;
21741;SDS011;11033;47.490;11.116;2022-12-31T06:12:45;0.73;;;0.73;;
21741;SDS011;11033;47.490;11.116;2022-12-31T06:15:10;0.70;;;0.70;;
21741;SDS011;11033;47.490;11.116;2022-12-31T06:17:35;0.90;;;0.90;;
21741;SDS011;11033;47.490;11.116;2022-12-31T06:20:01;1.25;;;1.15;;
21741;SDS011;11033;47.490;11.116;2022-12-31T06:22:26;1.00;;;0.73;;
21741;SDS011;11033;47.490;11.116;2022-12-31T06:24:51;2.88;;;0.80;;
21741;SDS011;11033;47.490;11.116;2022-12-31T06:27:16;0.90;;;0.90;;
21741;SDS011;11033;47.490;11.116;2022-12-31T06:29:42;0.93;;;0.93;;
21741;SDS011;11033;47.490;11.116;2022-12-31T06:32:09;1.48;;;1.00;;
21741;SDS011;11033;47.490;11.116;2022-12-31T06:34:35;1.17;;;0.80;;
21741;SDS011;11033;47.490;11.116;2022-12-31T06:37:00;1.37;;;0.80;;
21741;SDS011;11033;47.490;11.116;2022-12-31T06:39:25;0.60;;;0.60;;
21741;SDS011;11033;47.490;11.116;2022-12-31T06:41:51;0.68;;;0.68;;
21741;SDS011;11033;47.490;11.116;2022-12-31T06:44:16;2.17;;;0.67;;
21741;SDS011;11033;47.490;11.116;2022-12-31T06:46:41;0.80;;;0.60;;
21741;SDS011;11033;47.490;11.116;2022-12-31T06:49:06;0.80;;;0.60;;
21741;SDS011;11033;47.490;11.116;2022-12-31T06:51:32;1.17;;;0.90;;
21741;SDS011;11033;47.490;11.116;2022-12-31T06:53:57;1.17;;;0.90;;
21741;SDS011;11033;47.490;11.116;2022-12-31T06:56:23;1.10;;;0.73;;
21741;SDS011;11033;47.490;11.116;2022-12-31T06:58:52;0.85;;;0.85;;
21741;SDS011;11033;47.490;11.116;2022-12-31T07:04:30;1.27;;;1.05;;
21741;SDS011;11033;47.490;11.116;2022-12-31T07:18:24;1.27;;;1.08;;
21741;SDS011;11033;47.490;11.116;2022-12-31T07:21:06;0.73;;;0.73;;
21741;SDS011;11033;47.490;11.116;2022-12-31T07:23:36;0.93;;;0.93;;
21741;SDS011;11033;47.490;11.116;2022-12-31T07:26:06;1.63;;;1.00;;
21741;SDS011;11033;47.490;11.116;2022-12-31T07:31:52;0.98;;;0.88;;
21741;SDS011;11033;47.490;11.116;2022-12-31T07:39:57;0.82;;;0.70;;
21741;SDS011;11033;47.490;11.116;2022-12-31T07:42:28;0.80;;;0.80;;
21741;SDS011;11033;47.490;11.116;2022-12-31T07:47:44;1.20;;;0.93;;
21741;SDS011;11033;47.490;11.116;2022-12-31T07:50:13;2.53;;;1.27;;
21741;SDS011;11033;47.490;11.116;2022-12-31T07:52:40;1.48;;;1.33;;
21741;SDS011;11033;47.490;11.116;2022-12-31T07:55:06;2.33;;;2.03;;
21741;SDS011;11033;47.490;11.116;2022-12-31T07:57:33;2.40;;;1.77;;
21741;SDS011;11033;47.490;11.116;2022-12-31T08:00:07;3.58;;;1.60;;
21741;SDS011;11033;47.490;11.116;2022-12-31T08:08:34;3.28;;;2.13;;
21741;SDS011;11033;47.490;11.116;2022-12-31T08:11:12;2.92;;;1.73;;
21741;SDS011;11033;47.490;11.116;2022-12-31T08:13:45;2.42;;;1.85;;
21741;SDS011;11033;47.490;11.116;2022-12-31T08:16:11;3.28;;;1.20;;
21741;SDS011;11033;47.490;11.116;2022-12-31T08:18:38;1.40;;;1.20;;
21741;SDS011;11033;47.490;11.116;2022-12-31T08:21:08;1.10;;;1.00;;
21741;SDS011;11033;47.490;11.116;2022-12-31T08:24:05;1.30;;;1.20;;
21741;SDS011;11033;47.490;11.116;2022-12-31T08:29:38;0.98;;;0.88;;
21741;SDS011;11033;47.490;11.116;2022-12-31T08:32:14;0.70;;;0.70;;
21741;SDS011;11033;47.490;11.116;2022-12-31T08:34:50;1.63;;;0.90;;
21741;SDS011;11033;47.490;11.116;2022-12-31T08:42:40;0.80;;;0.80;;
21741;SDS011;11033;47.490;11.116;2022-12-31T08:45:32;0.88;;;0.88;;
21741;SDS011;11033;47.490;11.116;2022-12-31T08:51:02;2.22;;;1.10;;
21741;SDS011;11033;47.490;11.116;2022-12-31T08:53:27;0.98;;;0.98;;
21741;SDS011;11033;47.490;11.116;2022-12-31T08:56:00;1.42;;;1.00;;
21741;SDS011;11033;47.490;11.116;2022-12-31T09:01:26;1.33;;;1.17;;
21741;SDS011;11033;47.490;11.116;2022-12-31T09:06:57;1.95;;;1.10;;
21741;SDS011;11033;47.490;11.116;2022-12-31T09:12:05;1.33;;;1.23;;
21741;SDS011;11033;47.490;11.116;2022-12-31T09:14:40;2.70;;;0.93;;
21741;SDS011;11033;47.490;11.116;2022-12-31T09:17:26;1.15;;;1.05;;
21741;SDS011;11033;47.490;11.116;2022-12-31T09:20:21;1.95;;;1.10;;
21741;SDS011;11033;47.490;11.116;2022-12-31T09:22:49;1.13;;;1.02;;
21741;SDS011;11033;47.490;11.116;2022-12-31T09:25:15;1.20;;;1.10;;
21741;SDS011;11033;47.490;11.116;2022-12-31T09:27:48;2.38;;;1.40;;
21741;SDS011;11033;47.490;11.116;2022-12-31T09:30:16;1.55;;;1.27;;
21741;SDS011;11033;47.490;11.116;2022-12-31T09:35:41;1.20;;;1.10;;
21741;SDS011;11033;47.490;11.116;2022-12-31T09:38:17;3.63;;;1.77;;
21741;SDS011;11033;47.490;11.116;2022-12-31T09:57:26;6.32;;;4.18;;
21741;SDS011;11033;47.490;11.116;2022-12-31T10:00:09;5.25;;;4.22;;
21741;SDS011;11033;47.490;11.116;2022-12-31T10:08:30;3.72;;;3.15;;
21741;SDS011;11033;47.490;11.116;2022-12-31T10:11:07;3.30;;;2.70;;
21741;SDS011;11033;47.490;11.116;2022-12-31T10:13:42;6.97;;;3.10;;
21741;SDS011;11033;47.490;11.116;2022-12-31T10:29:47;4.75;;;4.05;;
21741;SDS011;11033;47.490;11.116;2022-12-31T10:38:10;4.95;;;3.58;;
21741;SDS011;11033;47.490;11.116;2022-12-31T10:46:11;3.58;;;2.83;;
21741;SDS011;11033;47.490;11.116;2022-12-31T11:05:11;3.30;;;2.22;;
21741;SDS011;11033;47.490;11.116;2022-12-31T11:07:55;2.33;;;1.55;;
21741;SDS011;11033;47.490;11.116;2022-12-31T11:27:43;2.40;;;2.20;;
21741;SDS011;11033;47.490;11.116;2022-12-31T11:30:38;4.55;;;2.83;;
21741;SDS011;11033;47.490;11.116;2022-12-31T11:39:02;1.92;;;1.63;;
21741;SDS011;11033;47.490;11.116;2022-12-31T11:41:57;1.90;;;1.60;;
21741;SDS011;11033;47.490;11.116;2022-12-31T11:50:24;3.70;;;2.35;;
21741;SDS011;11033;47.490;11.116;2022-12-31T11:56:05;2.25;;;1.75;;
21741;SDS011;11033;47.490;11.116;2022-12-31T11:58:46;1.63;;;1.52;;
21741;SDS011;11033;47.490;11.116;2022-12-31T12:01:16;2.15;;;1.83;;
21741;SDS011;11033;47.490;11.116;2022-12-31T12:03:46;3.42;;;1.88;;
21741;SDS011;11033;47.490;11.116;2022-12-31T12:06:12;2.00;;;1.90;;
21741;SDS011;11033;47.490;11.116;2022-12-31T12:08:39;2.20;;;2.10;;
21741;SDS011;11033;47.490;11.116;2022-12-31T12:11:09;2.15;;;1.95;;
21741;SDS011;11033;47.490;11.116;2022-12-31T12:13:42;2.20;;;2.00;;
21741;SDS011;11033;47.490;11.116;2022-12-31T12:16:08;2.50;;;1.95;;
21741;SDS011;11033;47.490;11.116;2022-12-31T12:18:38;2.08;;;1.90;;
21741;SDS011;11033;47.490;11.116;2022-12-31T12:21:10;1.95;;;1.75;;
21741;SDS011;11033;47.490;11.116;2022-12-31T12:28:53;3.07;;;2.87;;
21741;SDS011;11033;47.490;11.116;2022-12-31T12:31:19;3.83;;;3.63;;
21741;SDS011;11033;47.490;11.116;2022-12-31T12:33:47;6.32;;;5.95;;
21741;SDS011;11033;47.490;11.116;2022-12-31T12:36:15;8.88;;;8.07;;
21741;SDS011;11033;47.490;11.116;2022-12-31T12:38:42;6.32;;;5.95;;
21741;SDS011;11033;47.490;11.116;2022-12-31T12:41:17;5.55;;;5.15;;
21741;SDS011;11033;47.490;11.116;2022-12-31T12:43:45;7.90;;;7.50;;
21741;SDS011;11033;47.490;11.116;2022-12-31T12:48:45;4.05;;;3.75;;
21741;SDS011;11033;47.490;11.116;2022-12-31T12:59:19;5.40;;;3.40;;
21741;SDS011;11033;47.490;11.116;2022-12-31T13:04:59;3.15;;;2.85;;
21741;SDS011;11033;47.490;11.116;2022-12-31T13:13:06;5.18;;;3.20;;
21741;SDS011;11033;47.490;11.116;2022-12-31T13:22:15;3.72;;;3.30;;
21741;SDS011;11033;47.490;11.116;2022-12-31T13:27:42;4.00;;;3.58;;
21741;SDS011;11033;47.490;11.116;2022-12-31T13:30:32;3.30;;;3.00;;
21741;SDS011;11033;47.490;11.116;2022-12-31T13:38:17;4.10;;;3.20;;
21741;SDS011;11033;47.490;11.116;2022-12-31T13:40:55;8.38;;;4.40;;
21741;SDS011;11033;47.490;11.116;2022-12-31T13:43:33;4.75;;;3.30;;
21741;SDS011;11033;47.490;11.116;2022-12-31T13:48:38;4.40;;;2.95;;
21741;SDS011;11033;47.490;11.116;2022-12-31T13:54:05;2.78;;;1.55;;
21741;SDS011;11033;47.490;11.116;2022-12-31T13:56:42;1.63;;;1.50;;
21741;SDS011;11033;47.490;11.116;2022-12-31T13:59:14;2.85;;;2.15;;
21741;SDS011;11033;47.490;11.116;2022-12-31T14:04:49;6.50;;;3.97;;
21741;SDS011;11033;47.490;11.116;2022-12-31T14:07:25;4.80;;;4.20;;
21741;SDS011;11033;47.490;11.116;2022-12-31T14:09:56;7.80;;;7.00;;
21741;SDS011;11033;47.490;11.116;2022-12-31T14:17:56;6.60;;;3.30;;
21741;SDS011;11033;47.490;11.116;2022-12-31T14:20:47;5.72;;;3.25;;
21741;SDS011;11033;47.490;11.116;2022-12-31T14:23:30;3.78;;;2.58;;
21741;SDS011;11033;47.490;11.116;2022-12-31T14:26:20;3.15;;;2.80;;
21741;SDS011;11033;47.490;11.116;2022-12-31T14:37:01;3.20;;;2.90;;
21741;SDS011;11033;47.490;11.116;2022-12-31T14:50:43;5.43;;;3.67;;
21741;SDS011;11033;47.490;11.116;2022-12-31T14:53:20;3.97;;;3.22;;
21741;SDS011;11033;47.490;11.116;2022-12-31T14:55:55;4.25;;;2.28;;
21741;SDS011;11033;47.490;11.116;2022-12-31T14:58:30;4.88;;;1.90;;
21741;SDS011;11033;47.490;11.116;2022-12-31T15:00:57;3.10;;;1.60;;
21741;SDS011;11033;47.490;11.116;2022-12-31T15:03:36;3.10;;;2.10;;
21741;SDS011;11033;47.490;11.116;2022-12-31T15:09:34;4.65;;;1.95;;
21741;SDS011;11033;47.490;11.116;2022-12-31T15:14:30;2.67;;;1.77;;
21741;SDS011;11033;47.490;11.116;2022-12-31T15:17:32;1.60;;;1.45;;
21741;SDS011;11033;47.490;11.116;2022-12-31T15:20:18;1.67;;;1.58;;
21741;SDS011;11033;47.490;11.116;2022-12-31T15:23:41;1.80;;;1.65;;
21741;SDS011;11033;47.490;11.116;2022-12-31T15:26:00;2.60;;;1.70;;
21741;SDS011;11033;47.490;11.116;2022-12-31T15:28:37;2.38;;;2.03;;
21741;SDS011;11033;47.490;11.116;2022-12-31T15:33:38;2.20;;;1.98;;
21741;SDS011;11033;47.490;11.116;2022-12-31T15:36:10;4.97;;;2.10;;
21741;SDS011;11033;47.490;11.116;2022-12-31T15:38:42;3.58;;;3.00;;
21741;SDS011;11033;47.490;11.116;2022-12-31T15:41:12;2.50;;;2.20;;
21741;SDS011;11033;47.490;11.116;2022-12-31T15:43:44;2.97;;;2.00;;
21741;SDS011;11033;47.490;11.116;2022-12-31T15:46:18;3.85;;;3.13;;
21741;SDS011;11033;47.490;11.116;2022-12-31T15:51:18;4.13;;;3.45;;
21741;SDS011;11033;47.490;11.116;2022-12-31T15:53:50;15.63;;;10.65;;
21741;SDS011;11033;47.490;11.116;2022-12-31T15:56:20;15.50;;;10.48;;
21741;SDS011;11033;47.490;11.116;2022-12-31T15:58:56;11.93;;;8.57;;
21741;SDS011;11033;47.490;11.116;2022-12-31T16:01:27;12.88;;;8.80;;
21741;SDS011;11033;47.490;11.116;2022-12-31T16:04:01;13.10;;;9.52;;
21741;SDS011;11033;47.490;11.116;2022-12-31T16:06:34;7.95;;;5.70;;
21741;SDS011;11033;47.490;11.116;2022-12-31T16:09:01;10.05;;;6.28;;
21741;SDS011;11033;47.490;11.116;2022-12-31T16:11:30;4.50;;;3.60;;
21741;SDS011;11033;47.490;11.116;2022-12-31T16:14:00;4.43;;;3.08;;
21741;SDS011;11033;47.490;11.116;2022-12-31T16:16:28;4.57;;;2.20;;
21741;SDS011;11033;47.490;11.116;2022-12-31T16:18:55;4.20;;;3.13;;
21741;SDS011;11033;47.490;11.116;2022-12-31T16:21:31;2.60;;;2.10;;
21741;SDS011;11033;47.490;11.116;2022-12-31T16:24:03;3.80;;;2.95;;
21741;SDS011;11033;47.490;11.116;2022-12-31T16:26:35;4.55;;;3.05;;
21741;SDS011;11033;47.490;11.116;2022-12-31T16:29:10;4.00;;;3.30;;
21741;SDS011;11033;47.490;11.116;2022-12-31T16:31:38;5.82;;;4.00;;
21741;SDS011;11033;47.490;11.116;2022-12-31T16:34:14;5.63;;;4.18;;
21741;SDS011;11033;47.490;11.116;2022-12-31T16:36:42;9.75;;;4.35;;
21741;SDS011;11033;47.490;11.116;2022-12-31T16:41:46;7.13;;;5.13;;
21741;SDS011;11033;47.490;11.116;2022-12-31T16:44:25;6.18;;;4.80;;
21741;SDS011;11033;47.490;11.116;2022-12-31T16:46:53;8.75;;;5.50;;
21741;SDS011;11033;47.490;11.116;2022-12-31T16:49:21;16.90;;;11.82;;
21741;SDS011;11033;47.490;11.116;2022-12-31T16:51:47;8.40;;;7.50;;
21741;SDS011;11033;47.490;11.116;2022-12-31T16:54:16;7.57;;;5.93;;
21741;SDS011;11033;47.490;11.116;2022-12-31T16:56:47;9.23;;;5.13;;
21741;SDS011;11033;47.490;11.116;2022-12-31T16:59:26;6.55;;;4.32;;
21741;SDS011;11033;47.490;11.116;2022-12-31T17:01:55;4.63;;;3.28;;
21741;SDS011;11033;47.490;11.116;2022-12-31T17:04:24;12.50;;;5.07;;
21741;SDS011;11033;47.490;11.116;2022-12-31T17:06:50;6.53;;;4.75;;
21741;SDS011;11033;47.490;11.116;2022-12-31T17:09:19;7.65;;;4.72;;
21741;SDS011;11033;47.490;11.116;2022-12-31T17:11:55;8.68;;;4.80;;
21741;SDS011;11033;47.490;11.116;2022-12-31T17:14:31;7.13;;;4.70;;
21741;SDS011;11033;47.490;11.116;2022-12-31T17:17:13;6.68;;;4.38;;
21741;SDS011;11033;47.490;11.116;2022-12-31T17:19:46;7.30;;;4.13;;
21741;SDS011;11033;47.490;11.116;2022-12-31T17:24:42;4.45;;;3.22;;
21741;SDS011;11033;47.490;11.116;2022-12-31T17:27:10;8.32;;;5.63;;
21741;SDS011;11033;47.490;11.116;2022-12-31T17:29:36;7.70;;;5.30;;
21741;SDS011;11033;47.490;11.116;2022-12-31T17:32:03;10.65;;;7.70;;
21741;SDS011;11033;47.490;11.116;2022-12-31T17:34:35;11.02;;;6.18;;
21741;SDS011;11033;47.490;11.116;2022-12-31T17:39:42;8.68;;;4.95;;
21741;SDS011;11033;47.490;11.116;2022-12-31T17:42:10;8.80;;;6.30;;
21741;SDS011;11033;47.490;11.116;2022-12-31T17:44:38;8.65;;;5.78;;
21741;SDS011;11033;47.490;11.116;2022-12-31T17:47:07;6.93;;;4.20;;
21741;SDS011;11033;47.490;11.116;2022-12-31T17:49:35;6.45;;;5.03;;
21741;SDS011;11033;47.490;11.116;2022-12-31T17:52:01;6.35;;;5.38;;
21741;SDS011;11033;47.490;11.116;2022-12-31T17:54:27;9.63;;;6.10;;
21741;SDS011;11033;47.490;11.116;2022-12-31T17:56:52;8.27;;;5.10;;
21741;SDS011;11033;47.490;11.116;2022-12-31T17:59:19;10.88;;;5.90;;
21741;SDS011;11033;47.490;11.116;2022-12-31T18:01:47;10.10;;;6.22;;
21741;SDS011;11033;47.490;11.116;2022-12-31T18:04:14;9.63;;;6.18;;
21741;SDS011;11033;47.490;11.116;2022-12-31T18:06:41;8.10;;;5.53;;
21741;SDS011;11033;47.490;11.116;2022-12-31T18:09:07;14.00;;;5.80;;
21741;SDS011;11033;47.490;11.116;2022-12-31T18:11:33;7.80;;;5.15;;
21741;SDS011;11033;47.490;11.116;2022-12-31T18:14:00;7.40;;;4.05;;
21741;SDS011;11033;47.490;11.116;2022-12-31T18:16:26;6.82;;;4.20;;
21741;SDS011;11033;47.490;11.116;2022-12-31T18:18:51;10.00;;;6.63;;
21741;SDS011;11033;47.490;11.116;2022-12-31T18:21:27;24.30;;;21.67;;
21741;SDS011;11033;47.490;11.116;2022-12-31T18:23:56;17.60;;;12.48;;
21741;SDS011;11033;47.490;11.116;2022-12-31T18:26:23;28.63;;;21.60;;
21741;SDS011;11033;47.490;11.116;2022-12-31T18:28:49;31.08;;;19.70;;
21741;SDS011;11033;47.490;11.116;2022-12-31T18:31:24;38.63;;;22.15;;
21741;SDS011;11033;47.490;11.116;2022-12-31T18:33:52;90.63;;;60.47;;
21741;SDS011;11033;47.490;11.116;2022-12-31T18:36:20;338.50;;;261.15;;
21741;SDS011;11033;47.490;11.116;2022-12-31T18:38:46;221.27;;;151.98;;
21741;SDS011;11033;47.490;11.116;2022-12-31T18:41:18;234.13;;;159.10;;
21741;SDS011;11033;47.490;11.116;2022-12-31T18:43:46;107.70;;;70.95;;
21741;SDS011;11033;47.490;11.116;2022-12-31T18:46:13;35.42;;;22.88;;
21741;SDS011;11033;47.490;11.116;2022-12-31T18:48:40;68.22;;;48.38;;
21741;SDS011;11033;47.490;11.116;2022-12-31T18:51:13;92.40;;;66.07;;
21741;SDS011;11033;47.490;11.116;2022-12-31T18:53:40;90.93;;;76.75;;
21741;SDS011;11033;47.490;11.116;2022-12-31T18:56:08;125.82;;;102.88;;
21741;SDS011;11033;47.490;11.116;2022-12-31T19:01:01;52.77;;;38.60;;
21741;SDS011;11033;47.490;11.116;2022-12-31T19:03:26;181.52;;;142.15;;
21741;SDS011;11033;47.490;11.116;2022-12-31T19:05:52;154.80;;;121.70;;
21741;SDS011;11033;47.490;11.116;2022-12-31T19:08:21;77.55;;;49.63;;
21741;SDS011;11033;47.490;11.116;2022-12-31T19:10:47;33.40;;;24.52;;
21741;SDS011;11033;47.490;11.116;2022-12-31T19:13:15;17.42;;;12.57;;
21741;SDS011;11033;47.490;11.116;2022-12-31T19:15:46;13.75;;;9.35;;